Time;durP1;ratioP1;P1;durP2;ratioP2;P2;SDS_P1;SDS_P2;PMS_P1;PMS_P2;Temp;Humidity;BMP_temperature;BMP_pressure;BME280_temperature;BME280_humidity;BME280_pressure;Samples;Min_cycle;Max_cycle;Signal;HPM_P1;HPM_P2
2023/12/04 00:02:07;;;;;;;4.90;4.13;;;;;-4.80;95938.00;;;;5058078;28;20242;-62
2023/12/04 00:04:35;;;;;;;2.87;2.57;;;;;-4.80;95929.00;;;;5075415;28;20246;-61
2023/12/04 00:07:05;;;;;;;2.10;2.00;;;;;-4.90;95923.00;;;;5075467;28;20633;-61
2023/12/04 00:09:32;;;;;;;6.67;2.90;;;;;-4.90;95919.00;;;;5075000;28;20194;-62
2023/12/04 00:12:00;;;;;;;3.63;3.33;;;;;-4.90;95919.00;;;;5075061;28;20221;-62
2023/12/04 00:14:27;;;;;;;3.17;2.97;;;;;-4.90;95915.00;;;;5075018;28;20197;-62
2023/12/04 00:16:54;;;;;;;2.87;2.50;;;;;-4.90;95910.00;;;;5075185;28;20188;-62
2023/12/04 00:19:23;;;;;;;3.23;2.53;;;;;-4.80;95916.00;;;;5074902;28;20226;-62
2023/12/04 00:21:50;;;;;;;2.83;2.63;;;;;-5.00;95902.00;;;;5074802;28;20223;-61
2023/12/04 00:24:18;;;;;;;2.57;2.30;;;;;-5.10;95916.00;;;;5075038;28;20192;-61
2023/12/04 00:26:45;;;;;;;5.47;3.03;;;;;-5.10;95897.00;;;;5074995;28;20195;-61
2023/12/04 00:29:12;;;;;;;7.53;4.03;;;;;-5.10;95899.00;;;;5074845;28;20196;-61
2023/12/04 00:31:40;;;;;;;4.97;1.97;;;;;-5.20;95893.00;;;;5074466;28;20211;-61
2023/12/04 00:34:07;;;;;;;4.10;3.23;;;;;-5.10;95898.00;;;;5074430;28;20200;-61
2023/12/04 00:36:36;;;;;;;3.07;2.67;;;;;-5.20;95887.00;;;;5074494;28;20185;-61
2023/12/04 00:39:03;;;;;;;2.70;2.50;;;;;-5.20;95885.00;;;;5074731;28;20574;-61
2023/12/04 00:41:31;;;;;;;3.10;2.80;;;;;-5.10;95897.00;;;;5074360;28;20219;-62
2023/12/04 00:43:58;;;;;;;4.97;3.00;;;;;-5.20;95887.00;;;;5074381;28;20199;-61
2023/12/04 00:46:26;;;;;;;1.87;1.50;;;;;-5.20;95886.00;;;;5074487;28;20199;-61
2023/12/04 00:48:53;;;;;;;2.33;2.23;;;;;-5.20;95897.00;;;;5056273;28;20196;-61
2023/12/04 00:51:21;;;;;;;4.40;2.57;;;;;-5.10;95902.00;;;;5074067;28;20197;-61
2023/12/04 00:53:49;;;;;;;1.87;1.77;;;;;-5.20;95885.00;;;;5074474;28;20352;-61
2023/12/04 00:56:18;;;;;;;5.77;3.50;;;;;-5.10;95875.00;;;;5074679;28;20200;-61
2023/12/04 00:58:45;;;;;;;2.37;2.27;;;;;-5.10;95882.00;;;;5074005;28;20560;-62
2023/12/04 01:01:13;;;;;;;3.77;3.33;;;;;-5.10;95880.00;;;;5074358;28;20611;-62
2023/12/04 01:03:41;;;;;;;2.70;2.50;;;;;-5.10;95881.00;;;;5073889;28;20223;-62
2023/12/04 01:06:08;;;;;;;2.90;2.70;;;;;-5.10;95874.00;;;;5074054;28;20197;-61
2023/12/04 01:08:36;;;;;;;3.53;3.13;;;;;-4.90;95879.00;;;;5074158;28;20213;-61
2023/12/04 01:11:05;;;;;;;2.23;2.03;;;;;-5.00;95875.00;;;;5073704;28;20203;-60
2023/12/04 01:13:32;;;;;;;1.70;1.60;;;;;-4.90;95858.00;;;;5074031;28;20524;-60
2023/12/04 01:16:00;;;;;;;6.50;4.03;;;;;-4.80;95866.00;;;;5073661;28;20207;-60
2023/12/04 01:18:27;;;;;;;3.90;3.60;;;;;-4.70;95866.00;;;;5074148;28;20190;-60
2023/12/04 01:20:54;;;;;;;1.77;1.67;;;;;-4.80;95860.00;;;;5073147;28;20655;-61
2023/12/04 01:23:22;;;;;;;2.10;1.97;;;;;-4.90;95854.00;;;;5073507;28;20762;-62
2023/12/04 01:25:50;;;;;;;2.50;2.37;;;;;-4.80;95848.00;;;;5073647;28;20199;-61
2023/12/04 01:28:18;;;;;;;2.20;2.07;;;;;-4.80;95843.00;;;;5073563;28;20198;-61
2023/12/04 01:30:46;;;;;;;3.37;3.07;;;;;-4.80;95847.00;;;;5073842;28;20593;-61
2023/12/04 01:33:13;;;;;;;12.60;4.23;;;;;-4.70;95845.00;;;;5073487;28;20220;-62
2023/12/04 01:35:40;;;;;;;2.67;2.50;;;;;-4.70;95850.00;;;;5073496;28;20612;-62
2023/12/04 01:38:08;;;;;;;3.20;2.87;;;;;-4.70;95852.00;;;;5073670;28;20193;-61
2023/12/04 01:40:36;;;;;;;4.17;3.77;;;;;-4.70;95855.00;;;;5073336;28;20227;-61
2023/12/04 01:43:03;;;;;;;14.23;2.53;;;;;-4.60;95844.00;;;;5073278;28;20246;-61
2023/12/04 01:45:32;;;;;;;2.70;2.50;;;;;-4.70;95850.00;;;;5073314;28;20672;-62
2023/12/04 01:48:00;;;;;;;1.90;1.80;;;;;-4.60;95834.00;;;;5073246;28;20220;-62
2023/12/04 01:50:30;;;;;;;1.80;1.53;;;;;-4.60;95836.00;;;;5073250;28;20277;-61
2023/12/04 01:52:58;;;;;;;2.27;2.07;;;;;-4.60;95829.00;;;;5073424;28;20271;-61
2023/12/04 01:55:25;;;;;;;3.13;2.83;;;;;-4.60;95827.00;;;;5073435;28;20193;-62
2023/12/04 01:57:53;;;;;;;3.20;2.27;;;;;-4.60;95823.00;;;;5073309;28;20203;-62
2023/12/04 02:00:20;;;;;;;2.87;2.10;;;;;-4.60;95824.00;;;;5073124;28;20222;-62
2023/12/04 02:02:50;;;;;;;2.10;2.00;;;;;-4.50;95826.00;;;;5073106;28;20214;-62
2023/12/04 02:05:18;;;;;;;7.83;3.20;;;;;-4.70;95833.00;;;;5073668;28;20205;-62
2023/12/04 02:07:47;;;;;;;4.10;2.47;;;;;-4.60;95831.00;;;;5073009;28;20192;-62
2023/12/04 02:10:14;;;;;;;2.73;2.20;;;;;-4.70;95837.00;;;;5072996;28;20626;-61
2023/12/04 02:12:42;;;;;;;2.57;2.37;;;;;-4.70;95832.00;;;;5073166;28;20216;-62
2023/12/04 02:15:14;;;;;;;3.07;2.50;;;;;-4.70;95827.00;;;;5054910;28;20200;-62
2023/12/04 02:17:41;;;;;;;2.87;1.87;;;;;-4.80;95828.00;;;;5073204;28;20192;-61
2023/12/04 02:20:13;;;;;;;1.87;1.77;;;;;-4.80;95825.00;;;;5073457;28;20229;-61
2023/12/04 02:22:40;;;;;;;1.87;1.77;;;;;-4.80;95827.00;;;;5073450;28;20386;-61
2023/12/04 02:25:10;;;;;;;1.53;1.43;;;;;-4.80;95815.00;;;;5072768;28;20187;-62
2023/12/04 02:27:44;;;;;;;2.03;1.93;;;;;-4.80;95812.00;;;;5072807;28;20209;-62
2023/12/04 02:30:14;;;;;;;3.20;2.70;;;;;-4.80;95807.00;;;;5072841;28;20185;-62
2023/12/04 02:32:46;;;;;;;3.40;2.57;;;;;-4.80;95815.00;;;;5073848;28;20216;-61
2023/12/04 02:35:15;;;;;;;2.90;1.93;;;;;-4.90;95808.00;;;;5077151;28;20188;-61
2023/12/04 02:37:42;;;;;;;4.23;3.23;;;;;-4.90;95803.00;;;;5076730;28;20200;-61
2023/12/04 02:40:13;;;;;;;4.03;3.03;;;;;-4.80;95797.00;;;;5076814;28;20207;-61
2023/12/04 02:42:40;;;;;;;2.70;2.57;;;;;-4.80;95800.00;;;;5076674;28;20224;-61
2023/12/04 02:45:09;;;;;;;1.80;1.70;;;;;-4.70;95783.00;;;;5076696;28;20201;-61
2023/12/04 02:47:36;;;;;;;1.10;1.10;;;;;-4.70;95785.00;;;;5076514;28;20281;-61
2023/12/04 02:50:05;;;;;;;3.20;1.93;;;;;-4.70;95777.00;;;;5076491;28;20192;-61
2023/12/04 02:52:32;;;;;;;2.50;2.30;;;;;-4.70;95784.00;;;;5076339;28;20285;-62
2023/12/04 02:54:59;;;;;;;1.90;1.80;;;;;-4.70;95776.00;;;;5076365;28;20612;-62
2023/12/04 02:57:29;;;;;;;2.40;2.17;;;;;-4.60;95771.00;;;;5076395;28;20196;-62
2023/12/04 02:59:56;;;;;;;4.23;2.97;;;;;-4.60;95768.00;;;;5076254;28;20215;-62
2023/12/04 03:02:24;;;;;;;1.17;1.17;;;;;-4.50;95771.00;;;;5076096;28;20224;-62
2023/12/04 03:04:51;;;;;;;2.53;2.33;;;;;-4.50;95767.00;;;;5076491;28;20196;-62
2023/12/04 03:07:19;;;;;;;3.33;1.87;;;;;-4.50;95761.00;;;;5076445;28;20200;-62
2023/12/04 03:09:47;;;;;;;2.07;1.90;;;;;-4.50;95755.00;;;;5076119;28;20200;-62
2023/12/04 03:12:14;;;;;;;4.37;2.87;;;;;-4.50;95737.00;;;;5076105;28;20210;-62
2023/12/04 03:14:43;;;;;;;1.50;1.47;;;;;-4.40;95737.00;;;;5076107;28;20191;-62
2023/12/04 03:17:10;;;;;;;3.17;2.97;;;;;-4.40;95737.00;;;;5075925;28;20190;-60
2023/12/04 03:19:37;;;;;;;2.03;1.93;;;;;-4.40;95729.00;;;;5075908;28;20220;-61
2023/12/04 03:22:05;;;;;;;1.40;1.40;;;;;-4.50;95726.00;;;;5076376;28;20213;-61
2023/12/04 03:24:32;;;;;;;2.77;2.57;;;;;-4.50;95714.00;;;;5075932;28;20194;-62
2023/12/04 03:27:00;;;;;;;2.90;2.50;;;;;-4.50;95718.00;;;;5075757;28;20194;-62
2023/12/04 03:29:27;;;;;;;1.97;1.70;;;;;-4.50;95704.00;;;;5075896;28;20193;-62
2023/12/04 03:31:56;;;;;;;3.77;2.47;;;;;-4.70;95696.00;;;;5075724;28;20217;-61
2023/12/04 03:34:23;;;;;;;4.03;2.20;;;;;-4.70;95700.00;;;;5076288;28;20584;-62
2023/12/04 03:36:51;;;;;;;2.47;2.17;;;;;-4.60;95699.00;;;;5075634;28;20197;-61
2023/12/04 03:39:18;;;;;;;2.13;2.03;;;;;-4.60;95700.00;;;;5075516;28;20199;-61
2023/12/04 03:41:45;;;;;;;1.13;1.10;;;;;-4.50;95705.00;;;;5075741;28;20219;-61
2023/12/04 03:44:13;;;;;;;2.57;2.40;;;;;-4.50;95698.00;;;;5075686;28;20588;-61
2023/12/04 03:46:40;;;;;;;2.47;2.27;;;;;-4.50;95701.00;;;;5075566;28;20252;-62
2023/12/04 03:49:09;;;;;;;3.47;2.57;;;;;-4.50;95704.00;;;;5075726;28;20201;-62
2023/12/04 03:51:36;;;;;;;1.70;1.60;;;;;-4.50;95705.00;;;;5075381;28;20221;-61
2023/12/04 03:54:03;;;;;;;2.67;2.47;;;;;-4.40;95698.00;;;;5075363;28;20200;-61
2023/12/04 03:56:31;;;;;;;3.27;2.33;;;;;-4.40;95694.00;;;;5075634;28;20193;-61
2023/12/04 03:58:58;;;;;;;2.93;2.23;;;;;-4.30;95693.00;;;;5075297;28;20208;-61
2023/12/04 04:01:25;;;;;;;4.57;2.53;;;;;-4.30;95687.00;;;;5075131;28;20271;-61
2023/12/04 04:03:53;;;;;;;2.87;2.67;;;;;-4.30;95690.00;;;;5075062;28;20197;-61
2023/12/04 04:06:21;;;;;;;2.03;1.93;;;;;-4.40;95687.00;;;;5075232;28;20649;-62
2023/12/04 04:08:49;;;;;;;6.40;2.50;;;;;-4.40;95697.00;;;;5075595;28;20670;-61
2023/12/04 04:11:17;;;;;;;2.37;2.20;;;;;-4.30;95698.00;;;;5074811;28;20250;-62
2023/12/04 04:13:44;;;;;;;1.80;1.70;;;;;-4.20;95692.00;;;;5074979;28;20189;-61
2023/12/04 04:16:15;;;;;;;3.57;3.27;;;;;-4.20;95690.00;;;;5075330;28;20197;-62
2023/12/04 04:18:43;;;;;;;1.77;1.67;;;;;-4.10;95687.00;;;;5074891;28;20681;-62
2023/12/04 04:21:11;;;;;;;1.90;1.80;;;;;-4.30;95681.00;;;;5074667;28;20227;-62
2023/12/04 04:23:39;;;;;;;1.93;1.83;;;;;-4.30;95682.00;;;;5074728;28;20196;-62
2023/12/04 04:26:07;;;;;;;2.13;2.03;;;;;-4.30;95676.00;;;;5074733;28;20195;-62
2023/12/04 04:28:35;;;;;;;2.27;2.13;;;;;-4.20;95678.00;;;;5074612;28;20700;-62
2023/12/04 04:31:02;;;;;;;1.10;1.10;;;;;-4.30;95681.00;;;;5074622;28;20196;-61
2023/12/04 04:33:29;;;;;;;2.83;2.60;;;;;-4.10;95679.00;;;;5074582;28;20217;-62
2023/12/04 04:35:57;;;;;;;1.90;1.80;;;;;-4.30;95680.00;;;;5074873;28;20660;-61
2023/12/04 04:38:24;;;;;;;4.10;2.37;;;;;-4.30;95674.00;;;;5074492;28;20660;-61
2023/12/04 04:40:53;;;;;;;1.97;1.87;;;;;-4.40;95672.00;;;;5074293;28;20216;-62
2023/12/04 04:43:20;;;;;;;2.50;2.30;;;;;-4.30;95662.00;;;;5074394;28;20274;-62
2023/12/04 04:45:48;;;;;;;2.60;2.40;;;;;-4.40;95666.00;;;;5075486;28;20206;-61
2023/12/04 04:48:15;;;;;;;3.73;2.93;;;;;-4.30;95657.00;;;;5077263;28;20246;-61
2023/12/04 04:50:43;;;;;;;1.80;1.70;;;;;-4.20;95661.00;;;;5075513;28;20193;-61
2023/12/04 04:53:10;;;;;;;1.40;1.40;;;;;-4.30;95651.00;;;;5074679;28;20235;-61
2023/12/04 04:55:37;;;;;;;1.73;1.63;;;;;-4.30;95643.00;;;;5074017;28;20196;-61
2023/12/04 04:58:06;;;;;;;2.33;1.67;;;;;-4.30;95641.00;;;;5074265;28;20191;-61
2023/12/04 05:00:36;;;;;;;1.63;1.43;;;;;-4.30;95629.00;;;;5074163;28;20214;-61
2023/12/04 05:03:03;;;;;;;1.37;1.37;;;;;-4.20;95637.00;;;;5073923;28;20224;-61
2023/12/04 05:05:31;;;;;;;2.13;1.97;;;;;-4.10;95640.00;;;;5073909;28;20193;-61
2023/12/04 05:07:58;;;;;;;2.30;1.97;;;;;-4.20;95638.00;;;;5073871;28;20210;-61
2023/12/04 05:10:25;;;;;;;2.13;2.03;;;;;-4.30;95636.00;;;;5073801;28;20198;-62
2023/12/04 05:12:53;;;;;;;2.13;1.93;;;;;-4.50;95629.00;;;;5073839;28;20376;-62
2023/12/04 05:15:21;;;;;;;1.63;1.53;;;;;-4.40;95632.00;;;;5073972;28;20266;-62
2023/12/04 05:17:49;;;;;;;1.43;1.40;;;;;-4.40;95625.00;;;;5055864;28;20252;-62
2023/12/04 05:20:16;;;;;;;1.73;1.63;;;;;-4.40;95625.00;;;;5074120;28;20610;-62
2023/12/04 05:22:44;;;;;;;1.73;1.63;;;;;-4.40;95622.00;;;;5073706;28;20222;-62
2023/12/04 05:25:11;;;;;;;2.03;1.83;;;;;-4.40;95618.00;;;;5073520;28;20204;-62
2023/12/04 05:27:38;;;;;;;2.00;1.43;;;;;-4.30;95615.00;;;;5073536;28;20197;-61
2023/12/04 05:30:07;;;;;;;2.07;1.97;;;;;-4.20;95603.00;;;;5073497;28;20193;-61
2023/12/04 05:32:36;;;;;;;2.07;1.80;;;;;-4.30;95608.00;;;;5074266;28;20585;-61
2023/12/04 05:35:04;;;;;;;1.30;1.30;;;;;-4.30;95611.00;;;;5073614;28;20201;-61
2023/12/04 05:37:31;;;;;;;2.80;1.70;;;;;-4.30;95597.00;;;;5073517;28;20198;-61
2023/12/04 05:39:59;;;;;;;2.17;2.07;;;;;-4.20;95605.00;;;;5073462;28;20221;-61
2023/12/04 05:42:26;;;;;;;1.87;1.53;;;;;-4.20;95602.00;;;;5073506;28;20585;-62
2023/12/04 05:44:55;;;;;;;2.30;2.10;;;;;-4.30;95605.00;;;;5073578;28;20663;-61
2023/12/04 05:47:22;;;;;;;1.83;1.67;;;;;-4.20;95607.00;;;;5073492;28;20197;-61
2023/12/04 05:49:51;;;;;;;2.50;2.37;;;;;-4.20;95608.00;;;;5073687;28;20200;-61
2023/12/04 05:52:18;;;;;;;1.93;1.67;;;;;-4.10;95601.00;;;;5073371;28;20204;-62
2023/12/04 05:54:45;;;;;;;1.93;1.83;;;;;-4.10;95595.00;;;;5073716;28;20731;-62
2023/12/04 05:57:13;;;;;;;3.77;1.47;;;;;-4.10;95596.00;;;;5073376;28;20634;-61
2023/12/04 05:59:40;;;;;;;1.53;1.43;;;;;-4.10;95596.00;;;;5055445;28;20206;-61
2023/12/04 06:02:08;;;;;;;2.10;2.00;;;;;-4.00;95606.00;;;;5072879;28;20226;-62
2023/12/04 06:04:35;;;;;;;3.63;3.33;;;;;-4.00;95585.00;;;;5073319;28;20189;-62
2023/12/04 06:07:04;;;;;;;3.67;3.37;;;;;-3.90;95597.00;;;;5072716;28;20221;-62
2023/12/04 06:09:31;;;;;;;2.20;1.97;;;;;-4.00;95601.00;;;;5073226;28;20673;-62
2023/12/04 06:12:07;;;;;;;2.03;1.87;;;;;-4.10;95599.00;;;;5073258;28;20210;-62
2023/12/04 06:14:35;;;;;;;2.90;2.70;;;;;-4.00;95597.00;;;;5073558;28;20261;-62
2023/12/04 06:17:02;;;;;;;4.47;3.60;;;;;-3.90;95588.00;;;;5073018;28;20220;-62
2023/12/04 06:19:32;;;;;;;3.07;2.83;;;;;-3.70;95591.00;;;;5072817;28;20197;-61
2023/12/04 06:21:59;;;;;;;1.87;1.77;;;;;-3.70;95588.00;;;;5072750;28;20219;-61
2023/12/04 06:24:28;;;;;;;0.80;0.80;;;;;-3.80;95585.00;;;;5073618;28;20188;-61
2023/12/04 06:26:57;;;;;;;7.40;1.50;;;;;-3.80;95575.00;;;;5055053;28;20688;-62
2023/12/04 06:29:25;;;;;;;3.23;2.27;;;;;-3.70;95574.00;;;;5073006;28;20696;-61
2023/12/04 06:31:53;;;;;;;1.37;1.37;;;;;-3.80;95564.00;;;;5073074;28;20218;-61
2023/12/04 06:34:22;;;;;;;3.37;3.07;;;;;-3.80;95567.00;;;;5072908;28;20689;-61
2023/12/04 06:36:50;;;;;;;1.00;1.00;;;;;-3.70;95567.00;;;;5072757;28;20198;-61
2023/12/04 06:39:18;;;;;;;1.30;1.20;;;;;-3.60;95562.00;;;;5073149;28;20192;-61
2023/12/04 06:41:48;;;;;;;2.17;1.80;;;;;-3.70;95563.00;;;;5072734;28;20712;-62
2023/12/04 06:44:16;;;;;;;1.43;1.43;;;;;-3.70;95553.00;;;;5054680;28;20290;-61
2023/12/04 06:46:48;;;;;;;0.97;0.97;;;;;-3.60;95549.00;;;;5072615;28;20198;-62
2023/12/04 06:49:19;;;;;;;4.40;2.17;;;;;-3.70;95551.00;;;;5072862;28;20182;-61
2023/12/04 06:51:46;;;;;;;1.70;1.60;;;;;-3.50;95541.00;;;;5072535;28;20209;-61
2023/12/04 06:54:14;;;;;;;1.67;1.57;;;;;-3.70;95549.00;;;;5072900;28;20196;-61
2023/12/04 06:56:41;;;;;;;5.10;2.37;;;;;-3.60;95539.00;;;;5072624;28;20553;-61
2023/12/04 06:59:10;;;;;;;1.70;1.43;;;;;-3.70;95546.00;;;;5072611;28;20268;-61
2023/12/04 07:01:37;;;;;;;4.50;2.17;;;;;-3.70;95535.00;;;;5072107;28;20226;-61
2023/12/04 07:04:09;;;;;;;1.27;1.20;;;;;-3.60;95536.00;;;;5072814;28;20634;-62
2023/12/04 07:06:36;;;;;;;2.20;2.10;;;;;-3.60;95531.00;;;;5072689;28;20558;-61
2023/12/04 07:09:04;;;;;;;1.27;1.23;;;;;-3.60;95524.00;;;;5072398;28;20535;-62
2023/12/04 07:11:32;;;;;;;1.83;1.73;;;;;-3.60;95518.00;;;;5072254;28;20551;-62
2023/12/04 07:13:59;;;;;;;0.80;0.80;;;;;-3.70;95519.00;;;;5072429;28;20193;-61
2023/12/04 07:16:28;;;;;;;8.93;2.60;;;;;-3.80;95521.00;;;;5072277;28;20189;-62
2023/12/04 07:18:58;;;;;;;2.10;1.90;;;;;-4.00;95527.00;;;;5073837;28;20268;-61
2023/12/04 07:21:26;;;;;;;2.57;2.37;;;;;-3.80;95528.00;;;;5075912;28;20246;-61
2023/12/04 07:23:53;;;;;;;1.27;1.27;;;;;-3.90;95527.00;;;;5076082;28;20194;-61
2023/12/04 07:26:20;;;;;;;1.93;1.83;;;;;-3.70;95514.00;;;;5075810;28;20252;-61
2023/12/04 07:28:48;;;;;;;2.10;1.67;;;;;-3.70;95527.00;;;;5075750;28;20191;-62
2023/12/04 07:31:15;;;;;;;5.30;2.77;;;;;-3.70;95537.00;;;;5075991;28;20218;-62
2023/12/04 07:33:44;;;;;;;3.40;2.10;;;;;-3.60;95529.00;;;;5076367;28;20636;-62
2023/12/04 07:36:12;;;;;;;3.67;2.47;;;;;-3.50;95525.00;;;;5075581;28;20226;-65
2023/12/04 07:38:39;;;;;;;2.30;2.20;;;;;-3.50;95542.00;;;;5079975;28;20660;-63
2023/12/04 07:41:07;;;;;;;2.60;1.60;;;;;-3.40;95526.00;;;;5082867;28;20221;-66
2023/12/04 07:43:34;;;;;;;1.87;1.77;;;;;-3.20;95519.00;;;;5093741;28;20588;-64
2023/12/04 07:46:03;;;;;;;1.70;1.60;;;;;-3.10;95518.00;;;;5089238;28;20602;-65
2023/12/04 07:48:30;;;;;;;2.23;2.07;;;;;-3.00;95526.00;;;;5086747;28;20194;-62
2023/12/04 07:50:59;;;;;;;0.93;0.93;;;;;-3.00;95526.00;;;;5079005;28;20732;-62
2023/12/04 07:53:27;;;;;;;5.13;2.20;;;;;-2.90;95513.00;;;;5073446;28;20225;-62
2023/12/04 07:55:54;;;;;;;2.77;2.57;;;;;-2.90;95534.00;;;;5073215;28;20252;-63
2023/12/04 07:58:24;;;;;;;2.40;2.30;;;;;-2.90;95520.00;;;;5073462;28;20205;-62
2023/12/04 08:00:52;;;;;;;1.90;1.80;;;;;-2.80;95513.00;;;;5074040;28;20221;-62
2023/12/04 08:03:19;;;;;;;1.10;1.10;;;;;-2.80;95514.00;;;;5073971;28;20232;-62
2023/12/04 08:05:46;;;;;;;1.10;1.10;;;;;-2.90;95513.00;;;;5073467;28;20199;-62
2023/12/04 08:08:15;;;;;;;2.57;2.37;;;;;-2.90;95503.00;;;;5079572;28;20571;-62
2023/12/04 08:10:43;;;;;;;2.10;2.00;;;;;-2.80;95501.00;;;;5088954;28;20193;-62
2023/12/04 08:13:10;;;;;;;3.30;2.90;;;;;-2.10;95507.00;;;;5075188;28;20702;-63
2023/12/04 08:15:38;;;;;;;3.97;3.10;;;;;-1.70;95495.00;;;;5073545;28;20210;-62
2023/12/04 08:18:05;;;;;;;2.17;2.07;;;;;-1.90;95500.00;;;;5088451;28;20195;-62
2023/12/04 08:20:32;;;;;;;2.20;1.83;;;;;-1.90;95491.00;;;;5086467;28;20612;-62
2023/12/04 08:23:00;;;;;;;1.93;1.83;;;;;-2.00;95491.00;;;;5073070;28;20294;-62
2023/12/04 08:25:29;;;;;;;2.67;2.47;;;;;-1.90;95497.00;;;;5093194;28;20198;-62
2023/12/04 08:27:58;;;;;;;1.77;1.67;;;;;-2.10;95487.00;;;;5081062;28;20199;-62
2023/12/04 08:30:27;;;;;;;2.50;2.30;;;;;-2.10;95482.00;;;;5073079;28;20231;-62
2023/12/04 08:32:54;;;;;;;1.87;1.77;;;;;-2.20;95500.00;;;;5072799;28;20212;-62
2023/12/04 08:35:23;;;;;;;1.63;1.53;;;;;-2.40;95496.00;;;;5080076;28;20195;-63
2023/12/04 08:37:51;;;;;;;2.93;1.70;;;;;-2.30;95503.00;;;;5072637;28;20202;-62
2023/12/04 08:40:18;;;;;;;2.27;2.07;;;;;-2.30;95449.00;;;;5079050;28;20191;-62
2023/12/04 08:42:49;;;;;;;5.17;2.90;;;;;-2.20;95490.00;;;;5092388;28;20254;-63
2023/12/04 08:45:17;;;;;;;2.40;2.03;;;;;-2.10;95481.00;;;;5093137;28;20187;-63
2023/12/04 08:47:46;;;;;;;1.93;1.83;;;;;-2.10;95504.00;;;;5074897;28;20195;-62
2023/12/04 08:50:13;;;;;;;4.67;2.60;;;;;-2.10;95497.00;;;;5072931;28;20213;-62
2023/12/04 08:52:41;;;;;;;5.67;3.20;;;;;-2.20;95496.00;;;;5077762;28;20225;-62
2023/12/04 08:55:09;;;;;;;2.33;2.20;;;;;-2.10;95487.00;;;;5072734;28;20191;-62
2023/12/04 08:57:36;;;;;;;1.27;1.27;;;;;-2.00;95499.00;;;;5071952;28;20195;-62
2023/12/04 09:00:08;;;;;;;1.57;1.43;;;;;-2.00;95495.00;;;;5072305;28;20202;-62
2023/12/04 09:02:35;;;;;;;2.13;2.03;;;;;-1.90;95496.00;;;;5071544;28;20219;-62
2023/12/04 09:05:03;;;;;;;1.33;1.33;;;;;-2.00;95501.00;;;;5082010;28;20199;-62
2023/12/04 09:07:30;;;;;;;1.37;1.37;;;;;-2.00;95504.00;;;;5084637;28;20199;-62
2023/12/04 09:09:57;;;;;;;1.73;1.63;;;;;-2.00;95510.00;;;;5074736;28;20202;-62
2023/12/04 09:12:26;;;;;;;1.33;1.27;;;;;-2.10;95516.00;;;;5084421;28;20210;-62
2023/12/04 09:14:53;;;;;;;3.13;1.90;;;;;-2.10;95509.00;;;;5092326;28;20197;-63
2023/12/04 09:17:22;;;;;;;1.77;1.67;;;;;-2.40;95510.00;;;;5079758;28;20651;-63
2023/12/04 09:19:49;;;;;;;2.80;2.30;;;;;-2.50;95528.00;;;;5075831;28;20205;-63
2023/12/04 09:22:17;;;;;;;1.63;1.53;;;;;-2.40;95516.00;;;;5073936;28;20702;-63
2023/12/04 09:24:44;;;;;;;2.70;1.60;;;;;-2.30;95522.00;;;;5074416;28;20200;-63
2023/12/04 09:27:12;;;;;;;2.23;2.03;;;;;-2.30;95519.00;;;;5073858;28;20198;-63
2023/12/04 09:29:40;;;;;;;2.03;1.93;;;;;-2.10;95509.00;;;;5071485;28;20191;-63
2023/12/04 09:32:08;;;;;;;2.00;1.77;;;;;-2.20;95507.00;;;;5071649;28;20219;-62
2023/12/04 09:34:37;;;;;;;2.50;2.40;;;;;-2.10;95506.00;;;;5089440;28;20304;-62
2023/12/04 09:37:04;;;;;;;1.67;1.57;;;;;-2.00;95485.00;;;;5073255;28;20199;-62
2023/12/04 09:39:32;;;;;;;1.87;1.77;;;;;-1.80;95494.00;;;;5071945;28;20211;-62
2023/12/04 09:42:00;;;;;;;4.20;3.20;;;;;-1.80;95503.00;;;;5070712;28;20284;-64
2023/12/04 09:44:31;;;;;;;5.33;4.07;;;;;-1.60;95499.00;;;;5071756;28;20585;-63
2023/12/04 09:46:59;;;;;;;2.07;1.93;;;;;-1.80;95505.00;;;;5071161;28;20198;-63
2023/12/04 09:49:29;;;;;;;1.53;1.47;;;;;-1.50;95497.00;;;;5078897;28;20698;-63
2023/12/04 09:51:59;;;;;;;1.63;1.33;;;;;-1.50;95505.00;;;;5084592;28;20616;-63
2023/12/04 09:54:27;;;;;;;2.23;1.83;;;;;-1.20;95516.00;;;;5070665;28;20199;-63
2023/12/04 09:56:54;;;;;;;2.37;2.17;;;;;-1.20;95511.00;;;;5078704;28;20203;-63
2023/12/04 09:59:25;;;;;;;2.83;2.00;;;;;-1.30;95504.00;;;;5089816;28;20213;-63
2023/12/04 10:01:53;;;;;;;1.63;1.53;;;;;-1.00;95520.00;;;;5085146;28;20272;-63
2023/12/04 10:04:21;;;;;;;1.87;1.70;;;;;-1.00;95507.00;;;;5091717;28;20199;-63
2023/12/04 10:06:52;;;;;;;1.93;1.83;;;;;-0.90;95503.00;;;;5076495;28;20739;-63
2023/12/04 10:09:22;;;;;;;2.30;2.03;;;;;-1.00;95507.00;;;;5071457;28;20249;-63
2023/12/04 10:11:51;;;;;;;1.00;1.00;;;;;-1.00;95488.00;;;;5076149;28;20639;-63
2023/12/04 10:14:20;;;;;;;1.57;1.53;;;;;-1.10;95511.00;;;;5071152;28;20200;-63
2023/12/04 10:16:49;;;;;;;1.70;1.60;;;;;-1.10;95482.00;;;;5071483;28;20195;-63
2023/12/04 10:19:21;;;;;;;2.57;2.30;;;;;-1.10;95474.00;;;;5088207;28;20198;-63
2023/12/04 10:21:50;;;;;;;1.87;1.77;;;;;-0.90;95472.00;;;;5073802;28;20219;-63
2023/12/04 10:24:33;;;;;;;4.37;2.77;;;;;-1.40;95463.00;;;;5071403;28;20202;-63
2023/12/04 10:27:00;;;;;;;3.10;2.30;;;;;-1.40;95444.00;;;;5071082;28;20194;-63
2023/12/04 10:29:42;;;;;;;1.00;1.00;;;;;-1.30;95445.00;;;;5071725;28;20194;-63
2023/12/04 10:32:09;;;;;;;2.17;2.03;;;;;-1.30;95453.00;;;;5082366;28;20260;-63
2023/12/04 10:34:42;;;;;;;2.07;1.90;;;;;-1.00;95436.00;;;;5086917;28;20212;-62
2023/12/04 10:37:11;;;;;;;5.63;2.30;;;;;-0.90;95437.00;;;;5072751;28;20226;-62
2023/12/04 10:39:48;;;;;;;1.93;1.83;;;;;-0.80;95407.00;;;;5083596;28;20187;-63
2023/12/04 10:42:26;;;;;;;2.13;2.03;;;;;-0.60;95418.00;;;;5070935;28;20223;-63
2023/12/04 10:44:55;;;;;;;1.23;1.13;;;;;-0.70;95397.00;;;;5075017;28;20192;-62
2023/12/04 10:47:24;;;;;;;2.07;1.93;;;;;-0.60;95405.00;;;;5084627;28;20197;-63
2023/12/04 10:49:52;;;;;;;5.93;2.80;;;;;-0.60;95399.00;;;;5057779;28;20210;-63
2023/12/04 10:52:20;;;;;;;1.90;1.80;;;;;-0.50;95391.00;;;;5069987;28;20692;-63
2023/12/04 10:54:48;;;;;;;2.00;1.90;;;;;-0.30;95406.00;;;;5074497;28;20213;-63
2023/12/04 10:57:26;;;;;;;1.37;1.27;;;;;-0.40;95394.00;;;;5078325;28;20204;-63
2023/12/04 10:59:58;;;;;;;2.43;2.33;;;;;-0.50;95403.00;;;;5074890;28;20643;-63
2023/12/04 11:02:29;;;;;;;1.93;1.83;;;;;-0.40;95411.00;;;;5077788;28;20239;-63
2023/12/04 11:05:04;;;;;;;1.97;1.83;;;;;-0.60;95409.00;;;;5075679;28;20196;-63
2023/12/04 11:07:33;;;;;;;2.23;2.13;;;;;-0.60;95405.00;;;;5084200;28;20534;-63
2023/12/04 11:10:03;;;;;;;1.93;1.83;;;;;-1.20;95402.00;;;;5089811;28;20219;-63
2023/12/04 11:12:32;;;;;;;3.23;2.93;;;;;-1.30;95388.00;;;;5085920;28;20207;-63
2023/12/04 11:15:05;;;;;;;2.80;1.80;;;;;-1.30;95383.00;;;;5074292;28;20667;-63
2023/12/04 11:17:38;;;;;;;2.30;2.03;;;;;-1.60;95386.00;;;;5073955;28;20196;-63
2023/12/04 11:20:11;;;;;;;2.13;2.00;;;;;-1.50;95370.00;;;;5076490;28;20180;-64
2023/12/04 11:22:40;;;;;;;2.87;2.67;;;;;-1.30;95359.00;;;;5077367;28;20310;-64
2023/12/04 11:25:11;;;;;;;2.47;2.27;;;;;-1.10;95352.00;;;;5081657;28;20707;-65
2023/12/04 11:27:39;;;;;;;2.90;2.70;;;;;-0.90;95336.00;;;;5078420;28;20195;-62
2023/12/04 11:30:08;;;;;;;2.13;1.93;;;;;-0.80;95347.00;;;;5094615;28;20684;-62
2023/12/04 11:32:45;;;;;;;2.53;2.30;;;;;-0.50;95335.00;;;;5086002;28;20211;-62
2023/12/04 11:35:17;;;;;;;2.70;2.50;;;;;-0.20;95317.00;;;;5092525;28;20591;-62
2023/12/04 11:37:47;;;;;;;2.93;2.73;;;;;0.00;95314.00;;;;5085098;28;20659;-62
2023/12/04 11:40:17;;;;;;;1.03;1.03;;;;;0.10;95311.00;;;;5073629;28;20205;-62
2023/12/04 11:42:45;;;;;;;1.87;1.60;;;;;0.30;95308.00;;;;5074112;28;20234;-62
2023/12/04 11:45:20;;;;;;;1.93;1.83;;;;;0.30;95307.00;;;;5080754;28;20203;-62
2023/12/04 11:47:52;;;;;;;2.33;2.10;;;;;-0.10;95303.00;;;;5084004;28;20187;-62
2023/12/04 11:50:20;;;;;;;2.37;2.23;;;;;0.00;95304.00;;;;5081860;28;20577;-62
2023/12/04 11:52:49;;;;;;;4.07;1.93;;;;;-0.10;95298.00;;;;5074876;28;20221;-62
2023/12/04 11:55:25;;;;;;;2.00;1.90;;;;;-0.20;95288.00;;;;5088129;28;20203;-63
2023/12/04 11:57:57;;;;;;;1.47;1.37;;;;;-0.10;95286.00;;;;5074678;28;20198;-63
2023/12/04 12:00:25;;;;;;;2.53;2.43;;;;;0.10;95297.00;;;;5074094;28;20205;-62
2023/12/04 12:03:10;;;;;;;1.87;1.77;;;;;0.00;95271.00;;;;5072936;28;20726;-63
2023/12/04 12:05:40;;;;;;;1.97;1.87;;;;;0.30;95260.00;;;;5072569;28;20212;-63
2023/12/04 12:08:09;;;;;;;2.60;2.40;;;;;0.30;95265.00;;;;5073550;28;20197;-63
2023/12/04 12:10:38;;;;;;;1.20;1.20;;;;;0.10;95282.00;;;;5073851;28;20560;-63
2023/12/04 12:13:05;;;;;;;2.40;2.20;;;;;0.00;95278.00;;;;5077016;28;20212;-63
2023/12/04 12:15:34;;;;;;;2.30;2.10;;;;;0.10;95287.00;;;;5093412;28;20209;-63
2023/12/04 12:18:01;;;;;;;1.97;1.83;;;;;0.10;95268.00;;;;5077128;28;20228;-63
2023/12/04 12:20:29;;;;;;;1.70;1.60;;;;;0.20;95261.00;;;;5073353;28;20571;-63
2023/12/04 12:22:56;;;;;;;2.03;1.93;;;;;0.10;95270.00;;;;5073073;28;20221;-63
2023/12/04 12:25:26;;;;;;;1.80;1.60;;;;;0.10;95264.00;;;;5072678;28;20199;-63